Terminal Aerodrome Forecast
Issued by NWS

Home | Current Version | Previous Version | Text Only | Print | Product List | Glossary On
Versions: 1 2 3 4 5 6 7 8 9 10 11 12 13 14 15 16 17 18 19 20 21 22 23 24 25 26 27 28 29 30 31 32 33 34 35 36 37 38 39 40 41 42 43 44
000
FTUS43 KMKX 260800 AAA
TAFUES
TAF AMD
KUES 260800Z 2608/2706 18005KT P6SM SCT030
     FM260930 18005KT P6SM BKN025
     FM261300 24005KT P6SM BKN030 BKN150
     FM261800 23006KT P6SM SCT035 BKN120
     FM270500 20003KT 4SM BR BKN120=

USA.gov is the U.S. government's official web portal to all federal, state and local government web resources and services.